Time;durP1;ratioP1;P1;durP2;ratioP2;P2;SDS_P1;SDS_P2;PMS_P1;PMS_P2;Temp;Humidity;BMP_temperature;BMP_pressure;BME280_temperature;BME280_humidity;BME280_pressure;Samples;Min_cycle;Max_cycle;Signal;HPM_P1;HPM_P2
2023/01/21 00:02:14;;;;;;;22.05;13.95;;;;;;;2.56;100.00;62265.63;4975517;28;20231;-79
2023/01/21 00:04:42;;;;;;;23.80;15.15;;;;;;;2.66;100.00;62270.38;4973912;28;20207;-78
2023/01/21 00:07:08;;;;;;;23.05;14.68;;;;;;;2.46;100.00;62254.84;4969915;29;20275;-81
2023/01/21 00:09:35;;;;;;;23.80;14.82;;;;;;;2.57;100.00;62266.16;4969981;28;20244;-80
2023/01/21 00:12:03;;;;;;;22.63;15.40;;;;;;;2.62;100.00;62271.81;4971925;29;20541;-81
2023/01/21 00:14:30;;;;;;;24.92;15.07;;;;;;;2.68;100.00;62272.41;4971193;29;20426;-80
2023/01/21 00:16:58;;;;;;;27.10;15.98;;;;;;;2.49;100.00;62252.88;4952985;29;20229;-80
2023/01/21 00:19:27;;;;;;;24.70;14.77;;;;;;;2.82;100.00;62289.31;4970249;28;20210;-79
2023/01/21 00:21:54;;;;;;;24.02;15.10;;;;;;;2.93;100.00;62300.63;4951144;29;20226;-79
2023/01/21 00:24:23;;;;;;;26.90;14.77;;;;;;;2.83;100.00;62293.38;4954940;29;20388;-79
2023/01/21 00:26:50;;;;;;;22.50;13.68;;;;;;;2.97;100.00;62307.75;4971651;29;20264;-81
2023/01/21 00:29:17;;;;;;;22.80;14.55;;;;;;;2.77;100.00;62284.69;4969597;28;20291;-79
2023/01/21 00:31:44;;;;;;;21.05;14.23;;;;;;;2.93;100.00;62303.13;4971472;29;20232;-81
2023/01/21 00:34:12;;;;;;;20.88;13.95;;;;;;;2.94;100.00;62304.16;4972120;28;20285;-79
2023/01/21 00:36:40;;;;;;;21.40;14.13;;;;;;;2.66;100.00;62272.88;4968596;28;20229;-80
2023/01/21 00:39:07;;;;;;;24.40;14.68;;;;;;;2.46;100.00;62250.34;4971346;29;20401;-80
2023/01/21 00:41:36;;;;;;;23.58;14.05;;;;;;;2.58;100.00;62267.69;4971864;29;20225;-80
2023/01/21 00:44:02;;;;;;;22.35;14.43;;;;;;;2.66;100.00;62273.38;4970136;28;20240;-80
2023/01/21 00:46:29;;;;;;;24.35;14.82;;;;;;;2.52;100.00;62261.50;4969695;28;20288;-80
2023/01/21 00:48:59;;;;;;;22.98;14.20;;;;;;;2.60;100.00;62264.72;4970717;28;20272;-80
2023/01/21 00:51:27;;;;;;;24.05;14.57;;;;;;;2.67;100.00;62278.94;4963493;29;20251;-83
2023/01/21 00:53:55;;;;;;;22.30;13.73;;;;;;;2.50;100.00;62253.94;4968452;29;20212;-79
2023/01/21 00:56:22;;;;;;;22.67;14.60;;;;;;;2.33;100.00;62242.00;4968461;28;20228;-79
2023/01/21 00:58:49;;;;;;;22.35;14.05;;;;;;;2.25;100.00;62229.28;4973458;28;20192;-80
2023/01/21 01:01:19;;;;;;;22.13;14.77;;;;;;;2.24;100.00;62235.78;4972243;29;20233;-82
2023/01/21 01:03:48;;;;;;;21.85;14.40;;;;;;;2.06;100.00;62214.28;4975182;28;20259;-80
2023/01/21 01:06:17;;;;;;;24.67;14.38;;;;;;;2.23;100.00;62229.72;4991676;28;20312;-80
2023/01/21 01:08:45;;;;;;;20.58;13.38;;;;;;;2.23;100.00;62229.72;4982662;28;20205;-79
2023/01/21 01:11:14;;;;;;;21.15;13.82;;;;;;;2.39;100.00;62250.69;4972035;29;20542;-79
2023/01/21 01:13:41;;;;;;;19.55;13.82;;;;;;;2.07;100.00;62217.81;4969021;29;20216;-78
2023/01/21 01:16:09;;;;;;;21.63;13.55;;;;;;;2.12;100.00;62220.44;4972824;28;20265;-79
2023/01/21 01:18:36;;;;;;;20.63;14.15;;;;;;;2.38;100.00;62246.63;4973694;29;20208;-80
2023/01/21 01:21:05;;;;;;;23.83;13.13;;;;;;;2.14;100.00;62222.50;4969918;28;20450;-79
2023/01/21 01:23:32;;;;;;;19.98;12.45;;;;;;;2.10;100.00;62213.34;4972869;29;20208;-80
2023/01/21 01:26:02;;;;;;;21.95;13.32;;;;;;;1.98;100.00;62206.56;4971917;29;20251;-80
2023/01/21 01:28:31;;;;;;;20.92;14.00;;;;;;;2.16;100.00;62220.03;4972158;29;20208;-80
2023/01/21 01:30:58;;;;;;;24.02;14.68;;;;;;;1.97;100.00;62203.03;4968895;28;20244;-81
2023/01/21 01:33:27;;;;;;;20.58;13.50;;;;;;;2.01;100.00;62204.63;4974539;29;20399;-82
2023/01/21 01:35:53;;;;;;;21.15;13.80;;;;;;;1.87;100.00;62195.28;4970694;29;20251;-79
2023/01/21 01:38:22;;;;;;;21.40;14.18;;;;;;;1.99;100.00;62207.06;4968836;29;20419;-80
2023/01/21 01:40:52;;;;;;;22.15;14.63;;;;;;;1.81;100.00;62189.09;4969723;29;20219;-80
2023/01/21 01:43:22;;;;;;;21.73;13.88;;;;;;;2.01;100.00;62209.66;4972751;28;20200;-79
2023/01/21 01:45:52;;;;;;;21.58;13.10;;;;;;;1.98;100.00;62208.56;4965651;29;20275;-81
2023/01/21 01:48:22;;;;;;;18.20;12.43;;;;;;;2.26;100.00;62234.81;4972980;29;20273;-80
2023/01/21 01:50:49;;;;;;;22.13;14.05;;;;;;;2.22;100.00;62230.69;4954467;28;20273;-79
2023/01/21 01:53:18;;;;;;;23.50;14.05;;;;;;;2.14;100.00;62222.50;4969885;29;20236;-81
2023/01/21 01:55:48;;;;;;;24.00;13.65;;;;;;;2.08;100.00;62216.84;4972795;29;20256;-80
2023/01/21 01:58:18;;;;;;;23.42;13.63;;;;;;;2.18;100.00;62224.59;4967129;28;20439;-80
2023/01/21 02:00:45;;;;;;;21.58;14.05;;;;;;;2.34;100.00;62238.53;4949793;29;20244;-79
2023/01/21 02:05:59;;;;;;;27.73;14.07;;;;;;;2.27;100.00;62235.84;4968576;29;20441;-80
2023/01/21 02:08:26;;;;;;;19.33;12.68;;;;;;;2.45;100.00;62251.31;4967686;28;20205;-80
2023/01/21 02:10:55;;;;;;;23.15;12.60;;;;;;;2.54;100.00;62263.06;4968968;29;20240;-80
2023/01/21 02:13:23;;;;;;;20.95;13.10;;;;;;;2.60;100.00;62269.22;4966176;28;20224;-79
2023/01/21 02:16:03;;;;;;;18.85;11.98;;;;;;;2.61;100.00;62270.25;4968890;29;20493;-80
2023/01/21 02:18:41;;;;;;;19.73;12.35;;;;;;;2.55;100.00;62261.56;4960402;28;20217;-80
2023/01/21 02:21:31;;;;;;;21.35;13.55;;;;;;;2.56;100.00;62263.13;4952608;29;20276;-80
2023/01/21 02:24:31;;;;;;;19.95;12.48;;;;;;;2.41;100.00;62245.19;4968560;29;20193;-80
2023/01/21 02:27:33;;;;;;;20.30;12.55;;;;;;;2.38;100.00;62247.16;4968428;29;20236;-81
2023/01/21 02:30:35;;;;;;;20.92;13.07;;;;;;;2.38;100.00;62242.63;4943081;29;20232;-79
2023/01/21 02:33:17;;;;;;;22.95;12.68;;;;;;;2.31;100.00;62237.94;4970831;28;20204;-81
2023/01/21 02:35:51;;;;;;;19.75;12.25;;;;;;;2.09;100.00;62214.84;4972038;29;20220;-81
2023/01/21 02:38:28;;;;;;;22.33;13.02;;;;;;;2.23;100.00;62227.22;4972021;29;20199;-79
2023/01/21 02:41:13;;;;;;;22.50;12.70;;;;;;;2.18;100.00;62227.09;4970860;29;20248;-80
2023/01/21 02:43:49;;;;;;;21.50;10.75;;;;;;;2.22;100.00;62228.19;4969513;29;20212;-81
2023/01/21 02:46:18;;;;;;;20.08;12.05;;;;;;;2.11;100.00;62217.41;4972018;29;20232;-79
2023/01/21 02:48:54;;;;;;;19.42;11.13;;;;;;;2.17;100.00;62228.59;4966589;28;20208;-80
2023/01/21 02:51:23;;;;;;;18.70;9.90;;;;;;;1.79;100.00;62184.03;4971590;29;20243;-79
2023/01/21 02:53:50;;;;;;;30.23;10.63;;;;;;;1.59;100.00;62166.03;4971704;28;20201;-79
2023/01/21 02:56:20;;;;;;;14.20;9.20;;;;;;;1.65;100.00;62170.19;4971065;29;20225;-79
2023/01/21 02:58:53;;;;;;;10.73;7.93;;;;;;;1.73;100.00;62177.88;4954917;29;20206;-80
2023/01/21 03:01:33;;;;;;;13.10;8.40;;;;;;;1.75;100.00;62179.94;4958680;28;20259;-80
2023/01/21 03:04:30;;;;;;;14.95;8.82;;;;;;;1.69;100.00;62173.78;4970598;29;20196;-80
2023/01/21 03:07:08;;;;;;;15.43;11.55;;;;;;;1.73;100.00;62178.41;4969440;28;20244;-80
2023/01/21 03:09:36;;;;;;;16.45;10.02;;;;;;;1.76;100.00;62183.97;4971583;29;20205;-79
2023/01/21 03:12:15;;;;;;;19.52;11.50;;;;;;;1.64;100.00;62171.66;4970489;28;20233;-79
2023/01/21 03:17:40;;;;;;;13.00;8.85;;;;;;;1.73;100.00;62180.91;4961736;28;20227;-80
2023/01/21 03:20:12;;;;;;;13.40;9.38;;;;;;;1.68;100.00;62170.22;4977237;28;20429;-79
2023/01/21 03:22:41;;;;;;;14.05;9.60;;;;;;;1.79;100.00;62184.56;4971867;29;20227;-78
2023/01/21 03:25:11;;;;;;;15.07;9.60;;;;;;;1.73;100.00;62178.41;4966775;28;20204;-79
2023/01/21 03:27:42;;;;;;;18.58;9.60;;;;;;;1.59;100.00;62161.00;4971193;29;20295;-79
2023/01/21 03:30:15;;;;;;;14.10;9.70;;;;;;;1.70;100.00;62177.81;4972060;29;20240;-80
2023/01/21 03:32:46;;;;;;;16.40;9.32;;;;;;;1.55;100.00;62161.91;4971093;29;20229;-80
2023/01/21 03:35:20;;;;;;;16.52;10.32;;;;;;;1.41;100.00;62145.03;4969582;29;20510;-80
2023/01/21 03:37:52;;;;;;;12.18;8.35;;;;;;;1.48;100.00;62149.72;4969987;28;20244;-80
2023/01/21 03:40:24;;;;;;;13.48;8.73;;;;;;;1.45;100.00;62146.63;4970524;28;20212;-78
2023/01/21 03:42:52;;;;;;;12.68;8.25;;;;;;;1.41;100.00;62147.53;4964848;28;20229;-81
2023/01/21 03:45:28;;;;;;;14.50;9.10;;;;;;;1.38;100.00;62139.47;4970933;29;20216;-80
2023/01/21 03:48:00;;;;;;;11.75;8.45;;;;;;;1.43;100.00;62149.59;4969896;29;20230;-80
2023/01/21 03:50:36;;;;;;;10.15;7.30;;;;;;;1.43;100.00;62145.09;4970774;29;20236;-79
2023/01/21 03:53:03;;;;;;;7.45;5.85;;;;;;;1.41;100.00;62143.06;4953895;29;20209;-79
2023/01/21 03:55:30;;;;;;;5.22;4.55;;;;;;;1.50;100.00;62156.78;4956516;29;20211;-79
2023/01/21 03:57:57;;;;;;;5.15;4.65;;;;;;;1.51;100.00;62155.28;4970517;29;20225;-79
2023/01/21 04:00:24;;;;;;;4.68;3.90;;;;;;;1.62;100.00;62171.63;4969516;28;20215;-79
2023/01/21 04:02:51;;;;;;;4.53;4.00;;;;;;;1.68;100.00;62173.25;4969921;29;20221;-79
2023/01/21 04:05:18;;;;;;;6.35;4.35;;;;;;;1.73;100.00;62175.38;4969448;28;20288;-80
2023/01/21 04:07:46;;;;;;;4.43;4.00;;;;;;;1.68;100.00;62175.78;4971541;28;20251;-79
2023/01/21 04:10:13;;;;;;;5.38;3.85;;;;;;;1.68;100.00;62175.25;4969314;28;20500;-80
2023/01/21 04:12:40;;;;;;;5.65;4.55;;;;;;;1.83;100.00;62186.16;4969664;28;20231;-78
2023/01/21 04:15:08;;;;;;;4.45;4.03;;;;;;;1.87;100.00;62187.22;4957011;29;20209;-80
2023/01/21 04:17:35;;;;;;;4.97;4.50;;;;;;;1.95;100.00;62203.47;4971309;29;20231;-81
2023/01/21 04:20:02;;;;;;;5.68;4.95;;;;;;;2.02;100.00;62207.66;4967602;29;20210;-80
2023/01/21 04:22:29;;;;;;;4.53;4.07;;;;;;;2.04;100.00;62207.72;4968727;28;20256;-80
2023/01/21 04:24:57;;;;;;;4.40;4.00;;;;;;;2.00;100.00;62205.59;4969854;29;20216;-79
2023/01/21 04:27:24;;;;;;;4.50;4.10;;;;;;;2.06;100.00;62212.28;4965064;28;20225;-80
2023/01/21 04:29:51;;;;;;;4.40;3.40;;;;;;;1.96;100.00;62204.00;4953533;29;20268;-80
2023/01/21 04:32:18;;;;;;;6.65;3.45;;;;;;;2.09;100.00;62217.88;4950815;29;20305;-79
2023/01/21 04:34:45;;;;;;;4.00;3.70;;;;;;;2.03;100.00;62206.69;4966935;28;20236;-78
2023/01/21 04:37:12;;;;;;;4.30;3.90;;;;;;;2.00;100.00;62205.59;4961598;29;20277;-80
2023/01/21 04:39:39;;;;;;;3.60;3.30;;;;;;;1.95;100.00;62205.50;4950330;29;20225;-80
2023/01/21 04:42:07;;;;;;;4.15;3.63;;;;;;;1.88;100.00;62191.28;4968062;28;20224;-80
2023/01/21 04:44:34;;;;;;;5.15;3.92;;;;;;;1.89;100.00;62189.81;4968955;28;20220;-79
2023/01/21 04:47:00;;;;;;;5.05;3.83;;;;;;;1.79;100.00;62184.56;4968075;29;20295;-79
2023/01/21 04:49:27;;;;;;;4.78;4.38;;;;;;;1.84;100.00;62189.16;4968516;28;20219;-80
2023/01/21 04:51:54;;;;;;;6.13;3.90;;;;;;;1.89;100.00;62199.31;4969312;28;20287;-79
2023/01/21 04:54:21;;;;;;;5.25;3.92;;;;;;;2.01;100.00;62201.59;4969469;28;20248;-79
2023/01/21 04:56:47;;;;;;;4.93;4.53;;;;;;;2.02;100.00;62205.66;4971574;29;20228;-81
2023/01/21 04:59:16;;;;;;;3.78;3.47;;;;;;;2.06;100.00;62214.28;4969141;28;20562;-80
2023/01/21 05:01:43;;;;;;;3.45;3.15;;;;;;;2.17;100.00;62223.06;4969007;28;20522;-79
2023/01/21 05:04:10;;;;;;;3.63;3.33;;;;;;;2.25;100.00;62231.28;4967836;29;20213;-80
2023/01/21 05:06:36;;;;;;;3.45;3.15;;;;;;;2.35;100.00;62239.03;4970167;29;20235;-80
2023/01/21 05:09:03;;;;;;;3.28;3.08;;;;;;;2.40;100.00;62246.16;4968776;28;20212;-79
2023/01/21 05:11:30;;;;;;;4.43;3.85;;;;;;;2.42;100.00;62246.22;4971275;29;20239;-80
2023/01/21 05:13:57;;;;;;;4.90;4.50;;;;;;;2.46;100.00;62255.34;4968512;28;20218;-80
2023/01/21 05:16:26;;;;;;;6.65;5.90;;;;;;;2.47;100.00;62251.34;4969862;29;20235;-80
2023/01/21 05:18:52;;;;;;;8.55;6.60;;;;;;;2.42;100.00;62248.22;4967163;29;20224;-80
2023/01/21 05:21:19;;;;;;;9.45;7.55;;;;;;;2.47;100.00;62251.34;4966653;29;20276;-80
2023/01/21 05:23:46;;;;;;;11.82;8.88;;;;;;;2.34;100.00;62241.03;4955709;28;20276;-80
2023/01/21 05:26:13;;;;;;;17.30;10.05;;;;;;;2.30;100.00;62236.41;4957852;28;20288;-79
2023/01/21 05:28:40;;;;;;;14.30;10.27;;;;;;;2.13;100.00;62218.94;4966193;29;20280;-80
2023/01/21 05:31:07;;;;;;;12.95;9.15;;;;;;;2.15;100.00;62221.53;4965089;29;20241;-80
2023/01/21 05:33:36;;;;;;;10.77;8.68;;;;;;;2.04;100.00;62207.72;4950367;29;20255;-81
2023/01/21 05:36:06;;;;;;;14.73;9.80;;;;;;;1.88;100.00;62190.78;4951927;29;20272;-80
2023/01/21 05:38:33;;;;;;;17.15;10.60;;;;;;;1.77;100.00;62184.50;4964401;28;20510;-79
2023/01/21 05:41:02;;;;;;;12.80;9.57;;;;;;;1.86;100.00;62193.75;4958845;29;20232;-80
2023/01/21 05:43:29;;;;;;;17.10;10.05;;;;;;;1.79;100.00;62189.59;4951686;28;20201;-80
2023/01/21 05:45:57;;;;;;;15.15;9.20;;;;;;;1.81;100.00;62183.59;4967098;29;20228;-79
2023/01/21 05:48:24;;;;;;;12.02;7.85;;;;;;;1.82;100.00;62189.63;4968388;28;20276;-82
2023/01/21 05:50:52;;;;;;;10.68;8.30;;;;;;;1.53;100.00;62157.88;4968694;28;20245;-80
2023/01/21 05:53:19;;;;;;;13.57;8.60;;;;;;;1.53;100.00;62157.34;4968177;29;20219;-80
2023/01/21 05:55:46;;;;;;;10.20;8.05;;;;;;;1.52;100.00;62154.31;4967682;29;20228;-81
2023/01/21 05:58:13;;;;;;;10.25;7.53;;;;;;;1.48;100.00;62157.75;4966741;29;20228;-81
2023/01/21 06:00:40;;;;;;;10.70;7.82;;;;;;;1.56;100.00;62160.94;4969563;29;20228;-80
2023/01/21 06:03:07;;;;;;;10.57;7.95;;;;;;;1.54;100.00;62163.91;4969264;29;20204;-80
2023/01/21 06:05:34;;;;;;;11.15;7.65;;;;;;;1.66;100.00;62170.69;4951606;28;20240;-80
2023/01/21 06:08:02;;;;;;;11.23;7.75;;;;;;;1.61;100.00;62168.59;4971869;28;20204;-82
2023/01/21 06:10:29;;;;;;;11.30;8.07;;;;;;;1.68;100.00;62172.75;4966315;28;20354;-81
2023/01/21 06:12:56;;;;;;;9.68;6.70;;;;;;;1.60;100.00;62167.06;4972647;28;20271;-79
2023/01/21 06:15:24;;;;;;;10.65;6.63;;;;;;;1.51;100.00;62152.78;4971286;28;20208;-79
2023/01/21 06:17:51;;;;;;;7.13;6.43;;;;;;;1.55;100.00;62159.94;4960610;28;20225;-81
2023/01/21 06:20:18;;;;;;;9.43;5.47;;;;;;;1.32;100.00;62141.34;4954547;28;20209;-81
2023/01/21 06:22:45;;;;;;;9.60;5.53;;;;;;;1.34;100.00;62137.84;4956919;29;20233;-79
2023/01/21 06:25:14;;;;;;;5.25;4.75;;;;;;;1.38;100.00;62144.47;4959942;28;20437;-81
2023/01/21 06:27:41;;;;;;;5.45;4.07;;;;;;;1.48;100.00;62150.22;4960674;29;20231;-80
2023/01/21 06:30:09;;;;;;;5.00;4.50;;;;;;;1.44;100.00;62145.59;4957796;29;20222;-82
2023/01/21 06:32:37;;;;;;;8.65;6.90;;;;;;;1.46;100.00;62148.19;4954974;28;20248;-81
2023/01/21 06:35:04;;;;;;;8.95;6.15;;;;;;;1.51;100.00;62153.31;4963933;28;20201;-80
2023/01/21 06:37:31;;;;;;;8.82;6.60;;;;;;;1.67;100.00;62171.72;4968381;29;20236;-81
2023/01/21 06:39:58;;;;;;;10.95;7.00;;;;;;;1.71;100.00;62176.34;4961322;29;20241;-79
2023/01/21 06:42:27;;;;;;;9.02;7.43;;;;;;;1.73;100.00;62180.38;4956723;29;20237;-80
2023/01/21 06:44:53;;;;;;;10.38;7.97;;;;;;;1.82;100.00;62184.59;4962106;28;20232;-81
2023/01/21 06:47:21;;;;;;;8.10;6.47;;;;;;;1.80;100.00;62185.06;4965711;28;20232;-79
2023/01/21 06:49:48;;;;;;;7.97;6.60;;;;;;;1.83;100.00;62188.66;4968791;28;20204;-80
2023/01/21 06:52:14;;;;;;;8.55;6.63;;;;;;;1.93;100.00;62201.44;4963421;28;20267;-81
2023/01/21 06:54:42;;;;;;;7.55;5.13;;;;;;;2.05;100.00;62213.25;4958422;29;20537;-80
2023/01/21 06:57:09;;;;;;;6.53;5.63;;;;;;;2.09;100.00;62215.34;4960216;29;20228;-81
2023/01/21 06:59:38;;;;;;;7.65;6.85;;;;;;;2.09;100.00;62215.34;4968617;29;20193;-80
2023/01/21 07:02:04;;;;;;;8.10;6.28;;;;;;;2.07;100.00;62210.78;4960641;28;20538;-80
2023/01/21 07:04:31;;;;;;;8.70;6.05;;;;;;;2.16;100.00;62222.03;4970817;29;20212;-81
2023/01/21 07:06:59;;;;;;;9.15;6.95;;;;;;;2.21;100.00;62227.69;4971782;29;20274;-81
2023/01/21 07:09:26;;;;;;;10.82;7.55;;;;;;;2.18;100.00;62222.09;4971130;28;20209;-80
2023/01/21 07:11:54;;;;;;;11.27;8.05;;;;;;;2.21;100.00;62229.66;4972479;29;20308;-81
2023/01/21 07:14:21;;;;;;;15.35;9.23;;;;;;;2.28;100.00;62234.88;4966569;29;20284;-80
2023/01/21 07:16:49;;;;;;;21.63;10.90;;;;;;;2.44;100.00;62250.25;4972975;29;20229;-82
2023/01/21 07:19:16;;;;;;;20.63;10.85;;;;;;;2.51;100.00;62254.94;4968659;28;20431;-81
2023/01/21 07:21:46;;;;;;;31.17;14.50;;;;;;;2.51;100.00;62254.94;4972952;28;20252;-81
2023/01/21 07:24:13;;;;;;;32.83;16.15;;;;;;;2.59;100.00;62260.66;4959569;29;20288;-82
2023/01/21 07:26:40;;;;;;;31.20;14.95;;;;;;;2.68;100.00;62275.44;4952439;29;20225;-82
2023/01/21 07:29:08;;;;;;;24.27;13.45;;;;;;;3.09;100.00;62317.56;4967944;29;20215;-81
2023/01/21 07:31:35;;;;;;;31.15;14.98;;;;;;;3.62;100.00;62368.53;4973383;29;20251;-80
2023/01/21 07:34:09;;;;;;;30.05;13.60;;;;;;;3.66;100.00;62375.16;4971401;29;20205;-81
2023/01/21 07:36:36;;;;;;;24.50;9.95;;;;;;;3.78;100.00;62388.00;4971894;29;20280;-80
2023/01/21 07:39:03;;;;;;;13.63;8.57;;;;;;;3.81;100.00;62390.56;4973289;28;20209;-81
2023/01/21 07:41:30;;;;;;;9.98;8.07;;;;;;;3.89;100.00;62401.84;4970678;28;20296;-81
2023/01/21 07:43:57;;;;;;;12.18;7.95;;;;;;;3.94;100.00;62401.41;4971634;29;20268;-82
2023/01/21 07:46:25;;;;;;;8.80;5.72;;;;;;;4.00;100.00;62410.13;4970430;28;20243;-81
2023/01/21 07:48:52;;;;;;;10.18;4.90;;;;;;;4.15;100.00;62425.56;4971687;29;20266;-82
2023/01/21 07:51:21;;;;;;;7.47;5.35;;;;;;;4.22;100.00;62432.75;4972963;28;20268;-82
2023/01/21 07:53:48;;;;;;;4.43;3.78;;;;;;;4.36;100.00;62450.22;4973916;28;20260;-81
2023/01/21 07:56:16;;;;;;;4.45;4.05;;;;;;;4.33;100.00;62441.56;4971204;28;20252;-80
2023/01/21 07:58:45;;;;;;;4.60;4.20;;;;;;;4.40;100.00;62449.25;4971737;28;20205;-81
2023/01/21 08:01:14;;;;;;;3.88;3.58;;;;;;;4.48;100.00;62460.03;4973959;29;20255;-81
2023/01/21 08:03:49;;;;;;;7.10;4.18;;;;;;;4.70;100.00;62482.66;4972139;28;20207;-83
2023/01/21 08:06:16;;;;;;;3.85;3.45;;;;;;;4.52;100.00;62461.13;5022676;23;20244;-81
2023/01/21 08:08:45;;;;;;;3.50;3.20;;;;;;;5.05;100.00;62517.69;4975944;29;20216;-82
2023/01/21 08:11:12;;;;;;;3.60;3.17;;;;;;;5.14;100.00;62524.94;4974164;29;20231;-82
2023/01/21 08:13:39;;;;;;;2.47;2.28;;;;;;;5.06;100.00;62521.75;4966718;29;20204;-83
2023/01/21 08:16:10;;;;;;;3.58;3.28;;;;;;;5.17;100.00;62532.56;4968067;29;20280;-83
2023/01/21 08:18:37;;;;;;;2.17;2.08;;;;;;;5.55;100.00;62569.19;4974939;29;20204;-80
2023/01/21 08:21:05;;;;;;;2.20;2.10;;;;;;;5.47;100.00;62563.47;4972918;29;20241;-81
2023/01/21 08:23:35;;;;;;;2.38;2.13;;;;;;;5.54;100.00;62568.16;4960937;29;20268;-83
2023/01/21 08:26:09;;;;;;;2.58;2.33;;;;;;;5.39;100.00;62553.22;4955109;29;20553;-82
2023/01/21 08:28:35;;;;;;;2.20;2.10;;;;;;;5.48;100.00;62559.44;4957344;29;20202;-80
2023/01/21 08:31:05;;;;;;;11.38;3.10;;;;;;;5.49;100.00;62563.00;4955559;29;20486;-84
2023/01/21 08:33:33;;;;;;;2.60;2.40;;;;;;;5.15;100.00;62528.50;4974540;28;20236;-82
2023/01/21 08:36:01;;;;;;;2.88;2.75;;;;;;;5.77;100.00;62591.84;4974424;28;20220;-80
2023/01/21 08:38:30;;;;;;;2.67;2.47;;;;;;;5.85;100.00;62600.09;4974140;28;20208;-81
2023/01/21 08:41:00;;;;;;;4.43;2.40;;;;;;;5.72;100.00;62587.22;4990233;28;20410;-81
2023/01/21 08:43:29;;;;;;;3.63;3.33;;;;;;;6.01;100.00;62619.13;4995144;28;20235;-81
2023/01/21 08:46:01;;;;;;;2.80;2.60;;;;;;;6.14;100.00;62629.47;4992897;28;20208;-82
2023/01/21 08:48:29;;;;;;;5.38;3.38;;;;;;;6.24;100.00;62639.78;4972452;28;20209;-82
2023/01/21 08:51:01;;;;;;;2.55;2.35;;;;;;;5.86;100.00;62601.13;4954106;29;20253;-83
2023/01/21 08:53:33;;;;;;;3.38;2.50;;;;;;;5.71;100.00;62590.72;4970839;29;20236;-82
2023/01/21 08:56:04;;;;;;;2.00;1.90;;;;;;;5.92;100.00;62609.84;4972028;29;20229;-82
2023/01/21 08:58:33;;;;;;;4.05;2.10;;;;;;;5.97;100.00;62615.00;4974550;29;20208;-82
2023/01/21 09:01:07;;;;;;;4.07;2.25;;;;;;;6.08;100.00;62628.88;4973731;29;20217;-82
2023/01/21 09:03:34;;;;;;;2.60;2.40;;;;;;;6.23;100.00;62641.28;4973713;29;20201;-83
2023/01/21 09:06:02;;;;;;;2.72;2.53;;;;;;;6.23;100.00;62644.31;4970985;29;20225;-83
2023/01/21 09:08:29;;;;;;;3.60;3.03;;;;;;;6.49;100.00;62668.09;4974660;29;20240;-81
2023/01/21 09:11:01;;;;;;;3.20;2.92;;;;;;;6.76;100.00;62696.47;4973849;29;20293;-81
2023/01/21 09:13:29;;;;;;;3.55;2.97;;;;;;;6.85;100.00;62700.66;4972694;29;20423;-81
2023/01/21 09:15:58;;;;;;;3.33;3.03;;;;;;;6.97;100.00;62715.06;4969526;29;20246;-82
2023/01/21 09:18:27;;;;;;;2.80;2.53;;;;;;;7.00;100.00;62718.69;4973944;29;20235;-82
2023/01/21 09:21:00;;;;;;;3.78;2.30;;;;;;;7.29;100.00;62750.63;4977162;29;20260;-81
2023/01/21 09:23:36;;;;;;;4.05;2.60;;;;;;;7.25;100.00;62743.94;4979283;29;20205;-83
2023/01/21 09:26:06;;;;;;;3.17;2.90;;;;;;;6.92;100.00;62707.38;4962519;29;20292;-81
2023/01/21 09:28:37;;;;;;;3.90;3.40;;;;;;;7.28;100.00;62744.00;4959762;29;20228;-82
2023/01/21 09:31:11;;;;;;;4.80;3.33;;;;;;;7.26;100.00;62750.06;4957186;29;20221;-83
2023/01/21 09:33:41;;;;;;;4.65;3.40;;;;;;;7.39;100.00;62762.94;4955969;29;20232;-80
2023/01/21 09:36:12;;;;;;;3.08;2.88;;;;;;;7.48;100.00;62772.75;4953443;29;20217;-81
2023/01/21 09:38:41;;;;;;;2.22;2.03;;;;;;;7.73;100.00;62790.97;4955293;29;20558;-81
2023/01/21 09:41:21;;;;;;;2.50;2.33;;;;;;;7.61;100.00;62775.53;4958092;29;20313;-82
2023/01/21 09:44:10;;;;;;;2.40;2.30;;;;;;;7.29;100.00;62748.09;4972146;29;20216;-80
2023/01/21 09:49:42;;;;;;;4.35;2.63;;;;;;;7.64;100.00;62783.69;4979086;29;20260;-83
2023/01/21 09:52:24;;;;;;;2.75;2.35;;;;;;;7.77;100.00;62800.16;4978214;29;20247;-80
2023/01/21 09:54:51;;;;;;;2.17;2.08;;;;;;;7.84;100.00;62801.81;4972901;29;20274;-82
2023/01/21 09:58:01;;;;;;;2.00;1.90;;;;;;;7.80;100.00;62800.72;4956905;29;20284;-81
2023/01/21 10:00:33;;;;;;;2.97;2.45;;;;;;;7.94;100.00;62820.25;4957498;29;20272;-82
2023/01/21 10:03:12;;;;;;;2.50;2.40;;;;;;;7.93;100.00;62814.16;4957952;29;20240;-80
2023/01/21 10:05:54;;;;;;;1.85;1.75;;;;;;;8.09;100.00;62833.19;4958588;29;20242;-79
2023/01/21 10:08:30;;;;;;;2.70;2.60;;;;;;;8.15;100.00;62838.88;4957623;29;20225;-81
2023/01/21 10:11:04;;;;;;;2.35;2.17;;;;;;;7.96;100.00;62814.72;4966086;28;20225;-81
2023/01/21 10:13:43;;;;;;;2.60;2.40;;;;;;;8.20;100.00;62841.50;4977392;29;20236;-82
2023/01/21 10:16:22;;;;;;;1.70;1.63;;;;;;;8.10;100.00;62831.19;4975807;29;20220;-83
2023/01/21 10:18:53;;;;;;;1.92;1.83;;;;;;;8.04;100.00;62827.53;4975126;29;20244;-81
2023/01/21 10:21:30;;;;;;;3.22;2.40;;;;;;;8.14;100.00;62835.81;4974997;29;20280;-82
2023/01/21 10:24:03;;;;;;;2.90;2.22;;;;;;;8.23;100.00;62844.09;4978031;29;20256;-81
2023/01/21 10:26:34;;;;;;;2.22;2.13;;;;;;;8.15;100.00;62836.34;4978359;29;20235;-82
2023/01/21 10:29:02;;;;;;;2.17;2.08;;;;;;;8.01;98.58;62824.94;4973560;29;20209;-82
2023/01/21 10:31:33;;;;;;;4.60;2.05;;;;;;;7.99;99.01;62817.28;4976386;29;20229;-82
2023/01/21 10:34:02;;;;;;;3.72;1.92;;;;;;;7.90;97.68;62816.09;4977664;29;20216;-82
2023/01/21 10:36:58;;;;;;;2.88;2.35;;;;;;;7.99;99.11;62822.88;4978115;28;20228;-83
2023/01/21 10:39:37;;;;;;;1.95;1.85;;;;;;;7.85;97.15;62810.94;4962047;28;20220;-82
2023/01/21 10:42:28;;;;;;;1.88;1.73;;;;;;;7.74;97.75;62796.56;5101977;23;20255;-80
2023/01/21 10:45:11;;;;;;;1.38;1.38;;;;;;;7.71;98.67;62793.47;4977791;29;20205;-82
2023/01/21 10:47:47;;;;;;;2.25;2.13;;;;;;;8.06;99.69;62832.13;5020696;23;20342;-80
2023/01/21 10:50:29;;;;;;;1.48;1.40;;;;;;;7.87;96.11;62813.03;4970210;29;20220;-81
2023/01/21 10:53:01;;;;;;;1.77;1.67;;;;;;;8.08;97.90;62834.72;4974174;28;20291;-84
2023/01/21 10:55:41;;;;;;;2.05;1.80;;;;;;;8.17;95.09;62841.47;4972102;28;20208;-81
2023/01/21 10:58:18;;;;;;;2.03;1.92;;;;;;;8.32;93.62;62859.00;4971090;29;20386;-81
2023/01/21 11:00:49;;;;;;;1.95;1.85;;;;;;;8.30;94.04;62851.84;4964972;28;20482;-83
2023/01/21 11:03:23;;;;;;;1.70;1.60;;;;;;;8.23;94.50;62847.16;4974141;28;20217;-83
2023/01/21 11:05:52;;;;;;;2.28;1.77;;;;;;;8.34;93.99;62855.47;4971041;28;20233;-85
2023/01/21 11:08:22;;;;;;;1.67;1.58;;;;;;;8.40;92.23;62866.75;4972033;29;20228;-84
2023/01/21 11:10:54;;;;;;;1.42;1.35;;;;;;;8.29;92.34;62855.38;4971341;29;20197;-82
2023/01/21 11:13:21;;;;;;;1.70;1.60;;;;;;;8.42;93.69;62869.31;4975573;28;20535;-84
2023/01/21 11:15:52;;;;;;;1.58;1.58;;;;;;;8.53;93.26;62880.16;4970595;28;20216;-82
2023/01/21 11:18:33;;;;;;;2.10;1.77;;;;;;;8.47;92.08;62871.97;4972567;29;20253;-82
2023/01/21 11:21:09;;;;;;;1.85;1.75;;;;;;;8.35;92.87;62856.50;4972683;29;20268;-83
2023/01/21 11:23:39;;;;;;;2.00;1.90;;;;;;;8.59;91.97;62881.81;4977447;28;20300;-83
2023/01/21 11:26:15;;;;;;;1.88;1.77;;;;;;;8.47;91.24;62868.91;4970777;29;20227;-83
2023/01/21 11:28:42;;;;;;;1.90;1.80;;;;;;;8.50;91.50;62872.53;4961443;29;20228;-82
2023/01/21 11:31:13;;;;;;;1.65;1.55;;;;;;;8.54;92.23;62873.59;4961750;28;20294;-81
2023/01/21 11:33:42;;;;;;;1.58;1.48;;;;;;;8.85;90.64;62908.16;4965093;28;20240;-83
2023/01/21 11:36:16;;;;;;;1.88;1.77;;;;;;;9.05;90.94;62926.28;4984166;28;20239;-81
2023/01/21 11:38:46;;;;;;;1.60;1.50;;;;;;;9.13;89.54;62937.09;4970083;28;20211;-81
2023/01/21 11:41:20;;;;;;;1.50;1.50;;;;;;;9.01;89.23;62929.78;4956354;29;20228;-83
2023/01/21 11:43:48;;;;;;;1.80;1.70;;;;;;;9.05;89.34;62926.28;4954368;29;20201;-82
2023/01/21 11:46:37;;;;;;;2.13;1.90;;;;;;;8.96;88.79;62922.06;4952093;29;20297;-83
2023/01/21 11:49:33;;;;;;;2.92;1.95;;;;;;;8.79;88.86;62901.97;4957396;29;20208;-83
2023/01/21 11:52:23;;;;;;;2.45;1.63;;;;;;;8.90;90.91;62913.34;4967228;29;20232;-83
2023/01/21 11:54:50;;;;;;;1.85;1.75;;;;;;;8.95;90.87;62921.56;4948699;29;20213;-82